Time;durP1;ratioP1;P1;durP2;ratioP2;P2;SDS_P1;SDS_P2;PMS_P1;PMS_P2;Temp;Humidity;BMP_temperature;BMP_pressure;BME280_temperature;BME280_humidity;BME280_pressure;Samples;Min_cycle;Max_cycle;Signal;HPM_P1;HPM_P2
2021/09/20 00:00:08;;;;;;;3.78;2.05;;;11.80;99.90;;;;;;5031289;28;20034;-52
2021/09/20 00:02:34;;;;;;;2.05;1.67;;;11.80;99.90;;;;;;5031950;28;20028;-50
2021/09/20 00:05:00;;;;;;;1.58;1.48;;;11.80;99.90;;;;;;5031387;28;20033;-52
2021/09/20 00:07:25;;;;;;;1.75;1.50;;;11.80;99.90;;;;;;5031452;28;20087;-50
2021/09/20 00:09:51;;;;;;;3.55;2.58;;;11.80;99.90;;;;;;5031283;28;20075;-52
2021/09/20 00:12:17;;;;;;;2.97;1.80;;;11.80;99.90;;;;;;5031526;28;20353;-55
2021/09/20 00:14:42;;;;;;;3.28;2.00;;;11.80;99.90;;;;;;5031236;28;20025;-51
2021/09/20 00:17:08;;;;;;;2.15;1.60;;;11.80;99.90;;;;;;5031351;28;20029;-54
2021/09/20 00:19:34;;;;;;;2.28;1.58;;;11.80;99.90;;;;;;5031144;28;20056;-51
2021/09/20 00:22:00;;;;;;;1.92;1.60;;;11.80;99.90;;;;;;5031345;28;20025;-51
2021/09/20 00:24:25;;;;;;;2.38;1.73;;;11.70;99.90;;;;;;5030825;28;20494;-54
2021/09/20 00:26:51;;;;;;;2.92;1.85;;;11.80;99.90;;;;;;5030522;28;20013;-55
2021/09/20 00:29:16;;;;;;;2.17;1.70;;;11.70;99.90;;;;;;5030826;28;20249;-52
2021/09/20 00:31:42;;;;;;;2.05;1.52;;;11.80;99.90;;;;;;5031456;28;20530;-54
2021/09/20 00:34:08;;;;;;;2.30;1.75;;;11.70;99.90;;;;;;5031088;28;20017;-53
2021/09/20 00:36:33;;;;;;;1.77;1.52;;;11.70;99.90;;;;;;5030219;28;20038;-52
2021/09/20 00:38:59;;;;;;;2.88;1.77;;;11.70;99.90;;;;;;5028107;28;20033;-52
2021/09/20 00:41:24;;;;;;;4.07;2.00;;;11.70;99.90;;;;;;5030581;28;20111;-53
2021/09/20 00:43:50;;;;;;;2.95;1.92;;;11.60;99.90;;;;;;5013143;28;20885;-52
2021/09/20 00:46:16;;;;;;;2.35;2.00;;;11.60;99.90;;;;;;5030629;28;20037;-52
2021/09/20 00:48:42;;;;;;;2.70;2.13;;;11.60;99.90;;;;;;5030655;28;20514;-56
2021/09/20 00:51:07;;;;;;;2.55;2.08;;;11.50;99.90;;;;;;5030389;28;20037;-53
2021/09/20 00:53:33;;;;;;;3.53;1.85;;;11.50;99.90;;;;;;5031040;28;20514;-53
2021/09/20 00:56:01;;;;;;;2.30;2.10;;;11.50;99.90;;;;;;5012609;28;20033;-52
2021/09/20 00:58:27;;;;;;;2.92;1.98;;;11.50;99.90;;;;;;5029554;28;20083;-55
2021/09/20 01:00:53;;;;;;;1.67;1.58;;;11.50;99.90;;;;;;5010281;28;20075;-54
2021/09/20 01:03:19;;;;;;;2.30;1.98;;;11.50;99.90;;;;;;5028313;28;20061;-51
2021/09/20 01:05:45;;;;;;;1.90;1.80;;;11.50;99.90;;;;;;5030224;28;20017;-53
2021/09/20 01:08:10;;;;;;;2.00;1.80;;;11.50;99.90;;;;;;5030387;28;20456;-53
2021/09/20 01:10:36;;;;;;;1.70;1.60;;;11.50;99.90;;;;;;5030089;28;20041;-53
2021/09/20 01:13:02;;;;;;;3.80;1.80;;;11.40;99.90;;;;;;5030329;28;20026;-52
2021/09/20 01:15:27;;;;;;;3.38;1.50;;;11.50;99.90;;;;;;5029713;28;20101;-52
2021/09/20 01:17:53;;;;;;;2.00;1.90;;;11.50;99.90;;;;;;5030138;28;20112;-54
2021/09/20 01:20:19;;;;;;;2.47;1.95;;;11.50;99.90;;;;;;5029962;28;20045;-53
2021/09/20 01:22:56;;;;;;;2.72;1.90;;;11.50;99.90;;;;;;5030052;28;20037;-52
2021/09/20 01:25:22;;;;;;;2.45;1.77;;;11.50;99.90;;;;;;5028275;28;20021;-53
2021/09/20 01:27:47;;;;;;;2.00;1.70;;;11.40;99.90;;;;;;5026952;28;20035;-54
2021/09/20 01:30:13;;;;;;;2.50;2.08;;;11.40;99.90;;;;;;5042373;28;20049;-52
2021/09/20 01:32:39;;;;;;;1.75;1.65;;;11.40;99.90;;;;;;5050076;28;20095;-55
2021/09/20 01:35:05;;;;;;;1.65;1.55;;;11.30;99.90;;;;;;5050021;28;20395;-52
2021/09/20 01:37:31;;;;;;;2.90;1.77;;;11.40;99.90;;;;;;5049871;28;20029;-53
2021/09/20 01:39:56;;;;;;;2.03;1.48;;;11.40;99.90;;;;;;5045657;28;20036;-54
2021/09/20 01:42:22;;;;;;;2.85;2.10;;;11.30;99.90;;;;;;5041456;28;20100;-55
2021/09/20 01:44:48;;;;;;;1.98;1.75;;;11.40;99.90;;;;;;5049581;28;20025;-54
2021/09/20 01:47:13;;;;;;;7.13;1.60;;;11.30;99.90;;;;;;5049745;28;20475;-53
2021/09/20 01:49:39;;;;;;;3.75;2.03;;;11.30;99.90;;;;;;5049290;28;20079;-53
2021/09/20 01:52:05;;;;;;;1.73;1.63;;;11.30;99.90;;;;;;5031789;28;20109;-51
2021/09/20 01:54:30;;;;;;;1.88;1.63;;;11.30;99.90;;;;;;5049705;28;20051;-52
2021/09/20 01:56:56;;;;;;;3.63;2.00;;;11.30;99.90;;;;;;5049766;28;20641;-53
2021/09/20 01:59:22;;;;;;;3.28;2.03;;;11.30;99.90;;;;;;5049317;28;20475;-52
2021/09/20 02:01:48;;;;;;;1.95;1.85;;;11.30;99.90;;;;;;5049700;28;20056;-55
2021/09/20 02:04:14;;;;;;;3.10;1.63;;;11.30;99.90;;;;;;5049796;28;20017;-54
2021/09/20 02:06:39;;;;;;;1.80;1.65;;;11.20;99.90;;;;;;5049738;28;20088;-54
2021/09/20 02:09:08;;;;;;;2.75;1.65;;;11.20;99.90;;;;;;5031571;28;20063;-51
2021/09/20 02:11:34;;;;;;;2.15;1.83;;;11.20;99.90;;;;;;5049676;28;20394;-54
2021/09/20 02:14:00;;;;;;;2.88;2.38;;;11.20;99.90;;;;;;5049270;28;20025;-53
2021/09/20 02:16:25;;;;;;;2.17;1.98;;;11.30;99.90;;;;;;5049390;28;20104;-55
2021/09/20 02:18:51;;;;;;;2.00;1.80;;;11.30;99.90;;;;;;5049275;28;20032;-54
2021/09/20 02:21:17;;;;;;;2.83;2.05;;;11.30;99.90;;;;;;5049261;28;20029;-53
2021/09/20 02:23:42;;;;;;;2.53;2.30;;;11.30;99.90;;;;;;5049458;28;20021;-54
2021/09/20 02:26:08;;;;;;;1.90;1.80;;;11.30;99.90;;;;;;5049102;28;20143;-55
2021/09/20 02:28:36;;;;;;;3.58;2.20;;;11.30;99.90;;;;;;5049364;28;20044;-56
2021/09/20 02:31:07;;;;;;;2.85;1.70;;;11.20;99.90;;;;;;5049212;28;20426;-53
2021/09/20 02:33:33;;;;;;;1.92;1.83;;;11.20;99.90;;;;;;5049294;28;20033;-53
2021/09/20 02:35:59;;;;;;;2.67;2.35;;;11.20;99.90;;;;;;5049681;28;20033;-54
2021/09/20 02:38:24;;;;;;;2.03;1.92;;;11.10;99.90;;;;;;5049592;28;20466;-53
2021/09/20 02:40:50;;;;;;;2.13;1.92;;;11.20;99.90;;;;;;5048905;28;20106;-51
2021/09/20 02:43:16;;;;;;;2.60;1.83;;;11.20;99.90;;;;;;5049328;28;20032;-53
2021/09/20 02:45:41;;;;;;;4.00;2.53;;;11.20;99.90;;;;;;5049195;28;20501;-52
2021/09/20 02:48:07;;;;;;;2.40;2.08;;;11.10;99.90;;;;;;5049220;28;20025;-55
2021/09/20 02:50:32;;;;;;;2.28;1.90;;;11.10;99.90;;;;;;5049523;28;20027;-53
2021/09/20 02:52:58;;;;;;;2.53;2.30;;;11.10;99.90;;;;;;5034900;28;20462;-53
2021/09/20 02:55:24;;;;;;;2.38;2.15;;;11.10;99.90;;;;;;5072831;22;20045;-48
2021/09/20 02:57:49;;;;;;;3.75;2.25;;;11.10;99.90;;;;;;5014821;28;20035;-51
2021/09/20 03:00:15;;;;;;;3.67;2.05;;;11.10;99.90;;;;;;5014435;28;20037;-52
2021/09/20 03:02:41;;;;;;;2.78;2.55;;;11.10;99.90;;;;;;5032747;28;20044;-51
2021/09/20 03:05:07;;;;;;;2.40;2.20;;;11.10;99.90;;;;;;5032736;28;20029;-51
2021/09/20 03:07:33;;;;;;;2.30;2.10;;;11.00;99.90;;;;;;5032512;28;20025;-48
2021/09/20 03:09:58;;;;;;;2.33;2.10;;;11.10;99.90;;;;;;5032645;28;20391;-50
2021/09/20 03:12:24;;;;;;;3.95;2.30;;;11.10;99.90;;;;;;5032630;28;20037;-51
2021/09/20 03:14:50;;;;;;;3.25;2.30;;;11.10;99.90;;;;;;5032427;28;20036;-52
2021/09/20 03:17:15;;;;;;;2.28;2.08;;;11.10;99.90;;;;;;5032440;28;20492;-49
2021/09/20 03:19:41;;;;;;;2.75;2.47;;;11.10;99.90;;;;;;5032156;28;20347;-54
2021/09/20 03:22:07;;;;;;;2.83;2.60;;;11.00;99.90;;;;;;5014727;28;20025;-52
2021/09/20 03:24:33;;;;;;;2.67;2.00;;;11.00;99.90;;;;;;5031970;28;20472;-48
2021/09/20 03:26:58;;;;;;;4.10;1.83;;;11.00;99.90;;;;;;5014411;28;20113;-52
2021/09/20 03:29:24;;;;;;;2.58;2.38;;;11.00;99.90;;;;;;5014025;28;20033;-52
2021/09/20 03:31:50;;;;;;;3.30;2.35;;;11.00;99.90;;;;;;5032085;28;20029;-47
2021/09/20 03:34:15;;;;;;;3.58;2.30;;;11.00;99.90;;;;;;5032275;28;20446;-47
2021/09/20 03:36:41;;;;;;;2.35;2.15;;;11.00;99.90;;;;;;5031877;28;20022;-47
2021/09/20 03:39:07;;;;;;;2.80;2.30;;;11.00;99.90;;;;;;5031675;28;20468;-48
2021/09/20 03:41:32;;;;;;;2.65;2.45;;;11.00;99.90;;;;;;5031881;28;20028;-51
2021/09/20 03:43:58;;;;;;;2.63;2.10;;;11.00;99.90;;;;;;5032181;28;20029;-48
2021/09/20 03:46:24;;;;;;;3.42;2.17;;;11.00;99.90;;;;;;5031924;28;20021;-49
2021/09/20 03:48:50;;;;;;;3.80;2.17;;;11.00;99.90;;;;;;5031852;28;20039;-47
2021/09/20 03:51:15;;;;;;;2.40;2.20;;;10.90;99.90;;;;;;5013371;28;20025;-47
2021/09/20 03:53:41;;;;;;;6.45;2.50;;;11.00;99.90;;;;;;5031767;28;20113;-50
2021/09/20 03:56:06;;;;;;;3.88;2.63;;;11.00;99.90;;;;;;5031458;28;20041;-47
2021/09/20 03:58:32;;;;;;;3.15;2.60;;;11.00;99.90;;;;;;5031440;28;20094;-49
2021/09/20 04:00:58;;;;;;;5.22;2.45;;;11.00;99.90;;;;;;5031306;28;20044;-50
2021/09/20 04:03:23;;;;;;;2.40;2.20;;;11.00;99.90;;;;;;5031412;28;20105;-47
2021/09/20 04:05:49;;;;;;;2.53;2.28;;;11.00;99.90;;;;;;5031355;28;20025;-52
2021/09/20 04:08:16;;;;;;;2.65;2.30;;;11.00;99.90;;;;;;5031453;28;20017;-50
2021/09/20 04:10:43;;;;;;;2.42;2.22;;;11.00;99.90;;;;;;5031045;28;20025;-48
2021/09/20 04:13:09;;;;;;;2.70;2.45;;;11.00;99.90;;;;;;5013790;28;20029;-47
2021/09/20 04:15:37;;;;;;;3.63;2.35;;;11.00;99.90;;;;;;5031370;28;20032;-49
2021/09/20 04:18:03;;;;;;;3.30;2.55;;;10.90;99.90;;;;;;5031575;28;20029;-47
2021/09/20 04:20:28;;;;;;;3.75;3.20;;;10.90;99.90;;;;;;5031139;28;20034;-48
2021/09/20 04:22:54;;;;;;;2.47;2.28;;;11.00;99.90;;;;;;5013452;28;20025;-49
2021/09/20 04:25:20;;;;;;;2.53;2.22;;;10.90;99.90;;;;;;5013308;28;20026;-49
2021/09/20 04:27:45;;;;;;;7.32;2.97;;;10.90;99.90;;;;;;5031368;28;20034;-47
2021/09/20 04:30:12;;;;;;;5.80;2.35;;;11.00;99.90;;;;;;5030739;28;20502;-47
2021/09/20 04:32:38;;;;;;;2.08;1.98;;;10.90;99.90;;;;;;5031130;28;20022;-47
2021/09/20 04:35:05;;;;;;;2.05;1.88;;;10.90;99.90;;;;;;5031055;28;20030;-48
2021/09/20 04:37:30;;;;;;;2.88;2.58;;;10.90;99.90;;;;;;5030914;28;20025;-52
2021/09/20 04:39:56;;;;;;;2.92;1.98;;;10.90;99.90;;;;;;5030533;28;20075;-48
2021/09/20 04:42:21;;;;;;;2.13;2.03;;;10.90;99.90;;;;;;5031026;28;20064;-47
2021/09/20 04:44:47;;;;;;;3.45;3.00;;;10.90;99.90;;;;;;5030788;28;20022;-48
2021/09/20 04:47:12;;;;;;;1.92;1.60;;;10.90;99.90;;;;;;5030930;28;20033;-51
2021/09/20 04:49:39;;;;;;;2.63;2.40;;;10.90;99.90;;;;;;5030329;28;20029;-48
2021/09/20 04:52:05;;;;;;;3.20;2.70;;;10.90;99.90;;;;;;5030805;28;20061;-51
2021/09/20 04:54:31;;;;;;;3.38;2.28;;;10.90;99.90;;;;;;5030856;28;20033;-51
2021/09/20 04:56:56;;;;;;;3.40;2.75;;;10.90;99.90;;;;;;5030461;28;20052;-47
2021/09/20 04:59:22;;;;;;;2.70;2.22;;;10.90;99.90;;;;;;5030160;28;20033;-47
2021/09/20 05:01:47;;;;;;;3.83;2.60;;;10.90;99.90;;;;;;5030548;28;20028;-47
2021/09/20 05:04:14;;;;;;;2.67;2.03;;;10.90;99.90;;;;;;5012810;28;20021;-50
2021/09/20 05:06:40;;;;;;;2.80;2.30;;;11.00;99.90;;;;;;5030573;28;20026;-48
2021/09/20 05:09:07;;;;;;;2.78;2.47;;;10.90;99.90;;;;;;5030217;28;20033;-50
2021/09/20 05:11:33;;;;;;;3.88;2.67;;;10.90;99.90;;;;;;5030493;28;20044;-49
2021/09/20 05:13:58;;;;;;;2.35;1.88;;;10.90;99.90;;;;;;5029712;28;20026;-50
2021/09/20 05:16:24;;;;;;;2.65;2.33;;;11.00;99.90;;;;;;5030194;28;20037;-52
2021/09/20 05:18:49;;;;;;;3.45;2.47;;;10.90;99.90;;;;;;5030331;28;20021;-51
2021/09/20 05:21:15;;;;;;;3.97;2.30;;;10.90;99.90;;;;;;5030425;28;20029;-49
2021/09/20 05:23:43;;;;;;;3.03;2.72;;;10.90;99.90;;;;;;5030423;28;20041;-51
2021/09/20 05:26:09;;;;;;;3.15;2.85;;;10.90;99.90;;;;;;5029607;28;20017;-51
2021/09/20 05:28:34;;;;;;;5.28;3.20;;;10.90;99.90;;;;;;5029905;28;20040;-50
2021/09/20 05:31:00;;;;;;;2.67;2.40;;;10.90;99.90;;;;;;5029814;28;20025;-52
2021/09/20 05:33:25;;;;;;;3.17;2.45;;;10.90;99.90;;;;;;5030316;28;20442;-49
2021/09/20 05:35:51;;;;;;;2.70;2.25;;;10.90;99.90;;;;;;5030162;28;20663;-50
2021/09/20 05:38:17;;;;;;;5.10;2.45;;;10.90;99.90;;;;;;5029870;28;20079;-51
2021/09/20 05:40:44;;;;;;;3.28;2.45;;;10.90;99.90;;;;;;5029582;28;20017;-52
2021/09/20 05:43:10;;;;;;;2.65;1.88;;;11.00;99.90;;;;;;5029975;28;20068;-49
2021/09/20 05:45:36;;;;;;;4.20;2.33;;;11.00;99.90;;;;;;5029971;28;20533;-53
2021/09/20 05:48:03;;;;;;;3.10;2.40;;;11.00;99.90;;;;;;5030125;28;20033;-54
2021/09/20 05:50:29;;;;;;;5.68;2.83;;;11.00;99.90;;;;;;5030066;28;20029;-51
2021/09/20 05:52:55;;;;;;;2.63;2.22;;;11.00;99.90;;;;;;5030419;28;20441;-53
2021/09/20 05:55:22;;;;;;;3.03;2.05;;;11.00;99.90;;;;;;5029800;28;20443;-55
2021/09/20 05:57:48;;;;;;;2.65;2.45;;;11.00;99.90;;;;;;5029760;28;20167;-51
2021/09/20 06:00:14;;;;;;;2.75;2.20;;;11.00;99.90;;;;;;5029549;28;20029;-55
2021/09/20 06:02:40;;;;;;;2.85;2.22;;;11.00;99.90;;;;;;5029914;28;20026;-50
2021/09/20 06:05:08;;;;;;;5.63;2.38;;;11.00;99.90;;;;;;5029915;28;20022;-50
2021/09/20 06:07:33;;;;;;;2.92;2.63;;;11.00;99.90;;;;;;5029824;28;20626;-51
2021/09/20 06:09:59;;;;;;;3.50;2.50;;;11.00;99.90;;;;;;5029507;28;20033;-50
2021/09/20 06:12:25;;;;;;;4.35;2.65;;;11.00;99.90;;;;;;5029805;28;20103;-53
2021/09/20 06:14:50;;;;;;;3.80;2.75;;;11.00;99.90;;;;;;5029746;28;20079;-51
2021/09/20 06:17:16;;;;;;;3.80;2.85;;;11.00;99.90;;;;;;5029783;28;20499;-50
2021/09/20 06:19:42;;;;;;;3.67;2.63;;;11.00;99.90;;;;;;5029473;28;20091;-50
2021/09/20 06:22:08;;;;;;;4.72;3.28;;;11.00;99.90;;;;;;5029762;28;20025;-48
2021/09/20 06:24:33;;;;;;;5.45;2.78;;;11.00;99.90;;;;;;5029513;28;20037;-55
2021/09/20 06:26:59;;;;;;;2.63;2.13;;;11.10;99.90;;;;;;5033048;28;20112;-54
2021/09/20 06:29:26;;;;;;;3.05;2.50;;;11.10;99.90;;;;;;5033300;28;20112;-50
2021/09/20 06:31:51;;;;;;;5.43;2.47;;;11.10;99.90;;;;;;5033373;28;20065;-54
2021/09/20 06:34:17;;;;;;;3.85;2.70;;;11.10;99.90;;;;;;5033450;28;20597;-50
2021/09/20 06:36:43;;;;;;;3.05;2.58;;;11.20;99.90;;;;;;5033026;28;20026;-51
2021/09/20 06:39:09;;;;;;;3.45;2.53;;;11.10;99.90;;;;;;5033023;28;20117;-50
2021/09/20 06:41:35;;;;;;;3.85;3.17;;;11.20;99.90;;;;;;5033204;28;20025;-50
2021/09/20 06:44:03;;;;;;;4.28;2.90;;;11.20;99.90;;;;;;5032999;28;20021;-52
2021/09/20 06:46:30;;;;;;;5.18;2.72;;;11.20;99.90;;;;;;5033173;28;20021;-50
2021/09/20 06:48:59;;;;;;;7.18;2.72;;;11.20;99.90;;;;;;5033184;28;20029;-49
2021/09/20 06:51:25;;;;;;;3.15;2.60;;;11.20;99.90;;;;;;5033101;28;20377;-51
2021/09/20 06:53:50;;;;;;;2.92;2.63;;;11.20;99.90;;;;;;5032981;28;20033;-49
2021/09/20 06:56:17;;;;;;;7.35;2.63;;;11.30;99.90;;;;;;5033063;28;20041;-53
2021/09/20 06:58:43;;;;;;;2.55;2.35;;;11.30;99.90;;;;;;5033257;28;20034;-52
2021/09/20 07:01:08;;;;;;;2.90;2.60;;;11.30;99.90;;;;;;5032920;28;20391;-53
2021/09/20 07:03:34;;;;;;;2.80;2.47;;;11.30;99.90;;;;;;5032064;28;20029;-50
2021/09/20 07:06:00;;;;;;;3.40;3.10;;;11.40;99.90;;;;;;5032894;28;20033;-48
2021/09/20 07:08:26;;;;;;;3.20;2.70;;;11.40;99.90;;;;;;5032614;28;20112;-53
2021/09/20 07:10:51;;;;;;;4.68;2.92;;;11.40;99.90;;;;;;5032377;28;20021;-51
2021/09/20 07:13:17;;;;;;;5.13;3.22;;;11.40;99.90;;;;;;5032638;28;20441;-53
2021/09/20 07:15:43;;;;;;;3.33;2.70;;;11.50;99.90;;;;;;5032225;28;20026;-53
2021/09/20 07:18:08;;;;;;;3.53;2.83;;;11.50;99.90;;;;;;5032452;28;20045;-51
2021/09/20 07:20:34;;;;;;;2.95;2.40;;;11.50;99.90;;;;;;5032148;28;20113;-50
2021/09/20 07:23:00;;;;;;;3.83;2.53;;;11.50;99.90;;;;;;5032119;28;20026;-51
2021/09/20 07:25:25;;;;;;;5.30;3.10;;;11.50;99.90;;;;;;5031909;28;20031;-52
2021/09/20 07:27:52;;;;;;;3.63;3.00;;;11.50;99.90;;;;;;5032249;28;20484;-52
2021/09/20 07:30:18;;;;;;;2.97;2.30;;;11.60;99.90;;;;;;5032227;28;20516;-51
2021/09/20 07:32:46;;;;;;;2.85;2.55;;;11.60;99.90;;;;;;5032450;28;20026;-49
2021/09/20 07:35:15;;;;;;;3.85;2.50;;;11.70;99.90;;;;;;5032072;28;20036;-53
2021/09/20 07:37:42;;;;;;;3.33;2.72;;;11.70;99.90;;;;;;5031606;28;20391;-49
2021/09/20 07:40:09;;;;;;;3.05;2.75;;;11.70;99.90;;;;;;5031774;28;20435;-50
2021/09/20 07:42:35;;;;;;;4.18;3.25;;;11.80;99.90;;;;;;5032083;28;20029;-52
2021/09/20 07:45:00;;;;;;;2.97;2.67;;;11.80;99.90;;;;;;5031876;28;20025;-48
2021/09/20 07:47:26;;;;;;;4.82;2.90;;;11.80;99.90;;;;;;5031828;28;20036;-49
2021/09/20 07:49:51;;;;;;;3.25;2.95;;;11.80;99.90;;;;;;5031261;28;20071;-50
2021/09/20 07:52:17;;;;;;;3.50;2.78;;;11.90;99.90;;;;;;5031628;28;20037;-51
2021/09/20 07:54:43;;;;;;;2.90;2.50;;;11.90;99.90;;;;;;5031791;28;20033;-48
2021/09/20 07:57:08;;;;;;;4.90;3.10;;;11.90;99.90;;;;;;5031551;28;20112;-56
2021/09/20 07:59:34;;;;;;;4.50;3.35;;;12.00;99.90;;;;;;5031499;28;20081;-52
2021/09/20 08:01:59;;;;;;;2.90;2.45;;;11.90;99.90;;;;;;5031884;28;20460;-51
2021/09/20 08:04:25;;;;;;;4.18;3.00;;;12.00;99.90;;;;;;5014215;28;20029;-50
2021/09/20 08:06:51;;;;;;;4.75;2.60;;;12.00;99.90;;;;;;5031224;28;20028;-52
2021/09/20 08:09:16;;;;;;;5.10;3.25;;;12.10;99.90;;;;;;5031344;28;20038;-49
2021/09/20 08:11:42;;;;;;;3.85;2.88;;;12.10;99.90;;;;;;5031378;28;20072;-50
2021/09/20 08:14:07;;;;;;;4.32;2.50;;;12.10;99.90;;;;;;5031043;28;20029;-52
2021/09/20 08:16:33;;;;;;;4.50;2.83;;;12.20;99.90;;;;;;5031411;28;20032;-53
2021/09/20 08:18:58;;;;;;;3.30;3.00;;;12.20;99.90;;;;;;5031008;28;20037;-51
2021/09/20 08:21:24;;;;;;;4.75;2.88;;;12.20;99.90;;;;;;5013115;28;20112;-49
2021/09/20 08:23:50;;;;;;;3.50;2.80;;;12.20;99.90;;;;;;5031204;28;20026;-49
2021/09/20 08:26:15;;;;;;;5.70;3.05;;;12.20;99.90;;;;;;5030765;28;20433;-48
2021/09/20 08:28:41;;;;;;;4.18;3.03;;;12.30;99.90;;;;;;5013436;28;20483;-56
2021/09/20 08:31:06;;;;;;;4.07;3.00;;;12.30;99.90;;;;;;5030764;28;20056;-48
2021/09/20 08:33:32;;;;;;;3.15;2.28;;;12.30;99.90;;;;;;5031193;28;20033;-50
2021/09/20 08:35:58;;;;;;;3.47;2.97;;;12.30;99.90;;;;;;5031058;28;20064;-50
2021/09/20 08:38:24;;;;;;;3.55;3.20;;;12.40;99.90;;;;;;5031077;28;20057;-50
2021/09/20 08:40:51;;;;;;;3.90;2.83;;;12.50;99.90;;;;;;5030548;28;20025;-53
2021/09/20 08:43:16;;;;;;;5.05;3.10;;;12.50;99.90;;;;;;5030936;28;20045;-49
2021/09/20 08:45:42;;;;;;;6.05;3.38;;;12.50;99.90;;;;;;5030757;28;20396;-50
2021/09/20 08:48:08;;;;;;;4.43;2.80;;;12.50;99.90;;;;;;5012178;28;20310;-53
2021/09/20 08:50:36;;;;;;;3.80;2.72;;;12.50;99.90;;;;;;5029657;28;20029;-49
2021/09/20 08:53:05;;;;;;;3.17;2.70;;;12.60;99.90;;;;;;5030758;28;20041;-50
2021/09/20 08:55:32;;;;;;;3.95;3.03;;;12.60;99.90;;;;;;5030490;28;20614;-50
2021/09/20 08:57:58;;;;;;;6.50;2.92;;;12.70;99.90;;;;;;5030514;28;20044;-49
2021/09/20 09:00:24;;;;;;;3.13;2.65;;;12.70;99.90;;;;;;5030097;28;20030;-48
2021/09/20 09:02:50;;;;;;;3.90;2.90;;;12.70;99.90;;;;;;5030392;28;20103;-51
2021/09/20 09:05:28;;;;;;;2.83;2.53;;;12.70;99.90;;;;;;5030332;28;20026;-48
2021/09/20 09:07:55;;;;;;;3.45;2.42;;;12.70;99.90;;;;;;5030529;28;20026;-53
2021/09/20 09:10:23;;;;;;;6.60;2.53;;;12.80;99.90;;;;;;5030476;28;20424;-54
2021/09/20 09:12:50;;;;;;;5.10;2.97;;;12.80;99.90;;;;;;5030336;28;20041;-51
2021/09/20 09:15:16;;;;;;;6.35;3.28;;;12.90;99.90;;;;;;5030013;28;20447;-53
2021/09/20 09:17:48;;;;;;;3.53;2.40;;;12.90;99.90;;;;;;5030204;28;20137;-50
2021/09/20 09:20:22;;;;;;;3.50;2.85;;;12.90;99.90;;;;;;5029617;28;20069;-53
2021/09/20 09:22:58;;;;;;;3.70;2.83;;;12.90;99.90;;;;;;5030043;28;20040;-51
2021/09/20 09:25:34;;;;;;;4.03;2.47;;;12.90;99.90;;;;;;5029948;28;20018;-48
2021/09/20 09:28:09;;;;;;;3.72;2.35;;;13.00;99.90;;;;;;5030078;28;20060;-52
2021/09/20 09:30:41;;;;;;;3.88;2.90;;;13.00;99.90;;;;;;5029976;28;20028;-51
2021/09/20 09:33:21;;;;;;;3.33;2.65;;;13.00;99.90;;;;;;5012188;28;20113;-53
2021/09/20 09:35:53;;;;;;;5.75;2.50;;;13.00;99.90;;;;;;5012432;28;20117;-53
2021/09/20 09:38:19;;;;;;;4.38;2.65;;;13.00;99.90;;;;;;5029961;28;20400;-47
2021/09/20 09:40:57;;;;;;;3.92;2.47;;;13.00;99.90;;;;;;5029454;28;20037;-54
2021/09/20 09:43:28;;;;;;;7.07;2.53;;;13.10;99.90;;;;;;5030129;28;20022;-48
2021/09/20 09:45:56;;;;;;;2.25;2.05;;;13.10;99.90;;;;;;5029904;28;20021;-54
2021/09/20 09:48:25;;;;;;;5.38;2.35;;;13.00;99.90;;;;;;5029656;28;20136;-55
2021/09/20 09:50:54;;;;;;;3.22;2.10;;;13.10;99.90;;;;;;5028760;28;20048;-53
2021/09/20 09:53:28;;;;;;;3.92;2.65;;;13.00;99.90;;;;;;5029911;28;20084;-52
2021/09/20 09:55:56;;;;;;;2.47;2.20;;;13.10;99.90;;;;;;5029605;28;20112;-51
2021/09/20 09:58:22;;;;;;;3.13;2.42;;;13.10;99.90;;;;;;5029713;28;20029;-50
2021/09/20 10:00:49;;;;;;;3.92;2.50;;;13.20;99.90;;;;;;5014945;28;20391;-53
2021/09/20 10:03:15;;;;;;;6.03;2.60;;;13.20;99.90;;;;;;5033881;28;20037;-50
2021/09/20 10:05:57;;;;;;;2.65;2.10;;;13.30;99.90;;;;;;5033542;28;20078;-49
2021/09/20 10:08:25;;;;;;;5.00;2.38;;;13.30;99.90;;;;;;5033625;28;20025;-50
2021/09/20 10:10:51;;;;;;;2.88;2.08;;;13.40;99.90;;;;;;5015573;28;20022;-48
2021/09/20 10:13:17;;;;;;;2.40;1.83;;;13.40;99.90;;;;;;5033936;28;20032;-53
2021/09/20 10:15:43;;;;;;;3.70;2.17;;;13.50;99.90;;;;;;5015654;28;20029;-51
2021/09/20 10:18:10;;;;;;;3.40;1.70;;;13.50;99.90;;;;;;5033180;28;20018;-52
2021/09/20 10:20:35;;;;;;;4.70;1.70;;;13.60;99.90;;;;;;5033220;28;20024;-53
2021/09/20 10:23:01;;;;;;;2.65;2.22;;;13.60;99.90;;;;;;5033425;28;20025;-53
2021/09/20 10:25:29;;;;;;;3.45;2.05;;;13.70;99.90;;;;;;5033181;28;20051;-51
2021/09/20 10:27:55;;;;;;;2.72;2.22;;;13.60;99.90;;;;;;5033348;28;20017;-53
2021/09/20 10:30:34;;;;;;;3.72;2.13;;;13.70;99.90;;;;;;5033003;28;20029;-52
2021/09/20 10:33:05;;;;;;;2.92;2.10;;;13.60;99.90;;;;;;5033230;28;20088;-51
2021/09/20 10:35:35;;;;;;;2.65;2.13;;;13.60;99.90;;;;;;5033231;28;20029;-53
2021/09/20 10:38:12;;;;;;;3.38;1.90;;;13.70;99.90;;;;;;5033278;28;20104;-55
2021/09/20 10:40:37;;;;;;;3.08;2.03;;;13.70;99.90;;;;;;5033024;28;20025;-52
2021/09/20 10:43:05;;;;;;;2.40;2.00;;;13.70;99.90;;;;;;5032969;28;20044;-54
2021/09/20 10:45:43;;;;;;;1.85;1.67;;;13.60;99.90;;;;;;5033112;28;20029;-51
2021/09/20 10:48:33;;;;;;;2.70;1.75;;;13.80;99.90;;;;;;5033346;28;20021;-55
2021/09/20 10:51:12;;;;;;;3.28;2.05;;;13.90;99.90;;;;;;5031965;28;20041;-48
2021/09/20 10:53:38;;;;;;;4.45;2.40;;;13.80;99.90;;;;;;5032934;28;20100;-55
2021/09/20 10:56:04;;;;;;;5.40;2.50;;;13.90;99.90;;;;;;5033141;28;20567;-49
2021/09/20 10:58:34;;;;;;;2.22;2.00;;;13.80;99.90;;;;;;5032685;28;20112;-51
2021/09/20 11:01:11;;;;;;;3.50;2.40;;;13.90;99.90;;;;;;5032567;28;20428;-48
2021/09/20 11:03:46;;;;;;;4.25;2.55;;;14.10;99.90;;;;;;5032882;28;20032;-48
2021/09/20 11:06:26;;;;;;;2.80;2.45;;;14.10;99.90;;;;;;5014692;28;20024;-51
2021/09/20 11:08:58;;;;;;;3.88;1.70;;;14.10;99.90;;;;;;5032443;28;20080;-53
2021/09/20 11:11:41;;;;;;;2.90;2.60;;;14.20;99.90;;;;;;5031286;28;20025;-53
2021/09/20 11:14:14;;;;;;;2.35;1.95;;;14.10;99.90;;;;;;5031962;28;20025;-51
2021/09/20 11:17:01;;;;;;;3.08;2.47;;;14.10;99.90;;;;;;5032509;28;20283;-50
2021/09/20 11:19:33;;;;;;;3.28;2.20;;;14.10;99.90;;;;;;5031841;28;20487;-53
2021/09/20 11:22:11;;;;;;;2.30;1.90;;;14.00;99.90;;;;;;5032171;28;20101;-50
2021/09/20 11:24:46;;;;;;;2.53;1.77;;;14.10;99.90;;;;;;5032160;28;20068;-50
2021/09/20 11:27:45;;;;;;;2.47;2.25;;;14.00;99.90;;;;;;5032345;28;20083;-50
2021/09/20 11:30:18;;;;;;;3.55;2.20;;;14.10;99.90;;;;;;5025764;28;20488;-49
2021/09/20 11:33:00;;;;;;;2.63;2.10;;;14.00;99.90;;;;;;5032136;28;20022;-50
2021/09/20 11:35:28;;;;;;;3.25;2.30;;;14.00;99.90;;;;;;5014361;28;20028;-48
2021/09/20 11:37:57;;;;;;;2.28;1.90;;;14.10;99.90;;;;;;5032109;28;20032;-47
2021/09/20 11:40:28;;;;;;;2.60;2.03;;;14.10;99.90;;;;;;5013792;28;20025;-47
2021/09/20 11:42:57;;;;;;;2.75;1.85;;;14.00;99.90;;;;;;5032138;28;20017;-49
2021/09/20 11:45:34;;;;;;;6.20;2.40;;;14.00;99.90;;;;;;5031908;28;20103;-52
2021/09/20 11:48:03;;;;;;;3.30;2.20;;;14.00;99.90;;;;;;5031855;28;20049;-50
2021/09/20 11:50:34;;;;;;;4.07;2.40;;;14.10;99.90;;;;;;5031200;28;20411;-49
2021/09/20 11:53:10;;;;;;;3.15;1.73;;;14.10;99.90;;;;;;5032187;28;20071;-53
2021/09/20 11:55:47;;;;;;;3.72;2.03;;;14.00;99.90;;;;;;5031691;28;20104;-52
2021/09/20 11:58:15;;;;;;;4.38;1.85;;;14.10;99.90;;;;;;5031779;28;20390;-49
2021/09/20 12:00:44;;;;;;;3.92;2.28;;;14.10;99.90;;;;;;5031415;28;20032;-47
2021/09/20 12:03:13;;;;;;;2.75;2.00;;;14.20;99.90;;;;;;5031698;28;20021;-48
2021/09/20 12:05:41;;;;;;;3.55;2.30;;;14.20;99.90;;;;;;5031677;28;20388;-51
2021/09/20 12:08:27;;;;;;;3.45;2.03;;;14.20;99.90;;;;;;5031540;28;20102;-49
2021/09/20 12:10:55;;;;;;;3.05;2.05;;;14.00;99.90;;;;;;5029160;28;20038;-49
2021/09/20 12:13:25;;;;;;;3.90;2.05;;;14.00;99.90;;;;;;5030858;28;20036;-51
2021/09/20 12:15:53;;;;;;;3.38;2.05;;;13.90;99.90;;;;;;5030682;28;20033;-50
2021/09/20 12:18:25;;;;;;;3.65;2.00;;;13.90;99.90;;;;;;5031265;28;20480;-53
2021/09/20 12:20:53;;;;;;;3.92;2.10;;;13.90;99.90;;;;;;5031223;28;20021;-50
2021/09/20 12:23:20;;;;;;;2.00;1.73;;;14.10;99.90;;;;;;5031586;28;20018;-49
2021/09/20 12:25:56;;;;;;;3.15;2.13;;;14.10;99.90;;;;;;5031366;28;20036;-50
2021/09/20 12:28:30;;;;;;;2.97;1.98;;;14.10;99.90;;;;;;5031153;28;20049;-51
2021/09/20 12:31:07;;;;;;;2.83;2.05;;;14.10;99.90;;;;;;5013094;28;20463;-49
2021/09/20 12:33:54;;;;;;;5.00;2.33;;;14.10;99.90;;;;;;5013301;28;20079;-48
2021/09/20 12:36:35;;;;;;;3.33;2.50;;;14.10;99.90;;;;;;5013129;28;20079;-52
2021/09/20 12:39:09;;;;;;;4.43;2.55;;;14.10;99.90;;;;;;5030591;28;20018;-54
2021/09/20 12:41:40;;;;;;;3.22;2.00;;;14.10;99.90;;;;;;5013208;28;20108;-50
2021/09/20 12:44:06;;;;;;;7.10;2.53;;;14.10;99.90;;;;;;5030868;28;20029;-50
2021/09/20 12:46:33;;;;;;;3.72;2.65;;;14.20;99.90;;;;;;5030813;28;20057;-48
2021/09/20 12:49:00;;;;;;;2.20;2.00;;;14.20;99.90;;;;;;5030660;28;20017;-52